sensor_id;sensor_type;location;lat;lon;timestamp;temperature;humidity
3792;DHT22;1911;53.768;11.474;2022-12-18T00:01:04;-4.40;99.90
3792;DHT22;1911;53.768;11.474;2022-12-18T00:03:35;-4.50;99.90
3792;DHT22;1911;53.768;11.474;2022-12-18T00:06:01;-4.50;99.90
3792;DHT22;1911;53.768;11.474;2022-12-18T00:08:28;-4.50;99.90
3792;DHT22;1911;53.768;11.474;2022-12-18T00:10:54;-4.50;99.90
3792;DHT22;1911;53.768;11.474;2022-12-18T00:13:19;-4.50;99.90
3792;DHT22;1911;53.768;11.474;2022-12-18T00:15:45;-4.50;99.90
3792;DHT22;1911;53.768;11.474;2022-12-18T00:18:11;-4.50;99.90
3792;DHT22;1911;53.768;11.474;2022-12-18T00:20:37;-4.50;99.90
3792;DHT22;1911;53.768;11.474;2022-12-18T00:23:04;-4.60;99.90
3792;DHT22;1911;53.768;11.474;2022-12-18T00:25:29;-4.70;99.90
3792;DHT22;1911;53.768;11.474;2022-12-18T00:27:57;-4.70;99.90
3792;DHT22;1911;53.768;11.474;2022-12-18T00:30:22;-4.80;99.90
3792;DHT22;1911;53.768;11.474;2022-12-18T00:32:48;-4.90;99.90
3792;DHT22;1911;53.768;11.474;2022-12-18T00:35:14;-4.90;99.90
3792;DHT22;1911;53.768;11.474;2022-12-18T00:37:39;-4.80;99.90
3792;DHT22;1911;53.768;11.474;2022-12-18T00:40:05;-4.80;99.90
3792;DHT22;1911;53.768;11.474;2022-12-18T00:42:31;-4.80;99.90
3792;DHT22;1911;53.768;11.474;2022-12-18T00:45:15;-4.80;99.90
3792;DHT22;1911;53.768;11.474;2022-12-18T00:47:41;-4.80;99.90
3792;DHT22;1911;53.768;11.474;2022-12-18T00:50:07;-4.80;99.90
3792;DHT22;1911;53.768;11.474;2022-12-18T00:52:33;-4.70;99.90
3792;DHT22;1911;53.768;11.474;2022-12-18T00:54:58;-4.70;99.90
3792;DHT22;1911;53.768;11.474;2022-12-18T00:57:24;-4.70;99.90
3792;DHT22;1911;53.768;11.474;2022-12-18T00:59:49;-4.80;99.90
3792;DHT22;1911;53.768;11.474;2022-12-18T01:02:15;-4.80;99.90
3792;DHT22;1911;53.768;11.474;2022-12-18T01:04:41;-4.90;99.90
3792;DHT22;1911;53.768;11.474;2022-12-18T01:07:06;-4.80;99.90
3792;DHT22;1911;53.768;11.474;2022-12-18T01:09:32;-4.90;99.90
3792;DHT22;1911;53.768;11.474;2022-12-18T01:11:57;-5.00;99.90
3792;DHT22;1911;53.768;11.474;2022-12-18T01:14:23;-5.10;99.90
3792;DHT22;1911;53.768;11.474;2022-12-18T01:16:48;-5.10;99.90
3792;DHT22;1911;53.768;11.474;2022-12-18T01:19:14;-4.90;99.90
3792;DHT22;1911;53.768;11.474;2022-12-18T01:21:39;-4.90;99.90
3792;DHT22;1911;53.768;11.474;2022-12-18T01:24:05;-4.90;99.90
3792;DHT22;1911;53.768;11.474;2022-12-18T01:26:31;-4.80;99.90
3792;DHT22;1911;53.768;11.474;2022-12-18T01:28:57;-4.80;99.90
3792;DHT22;1911;53.768;11.474;2022-12-18T01:31:25;-4.80;99.90
3792;DHT22;1911;53.768;11.474;2022-12-18T01:33:52;-4.80;99.90
3792;DHT22;1911;53.768;11.474;2022-12-18T01:36:26;-4.70;99.90
3792;DHT22;1911;53.768;11.474;2022-12-18T01:38:52;-4.80;99.90
3792;DHT22;1911;53.768;11.474;2022-12-18T01:41:24;-4.70;99.90
3792;DHT22;1911;53.768;11.474;2022-12-18T01:43:54;-4.70;99.90
3792;DHT22;1911;53.768;11.474;2022-12-18T01:46:26;-4.70;99.90
3792;DHT22;1911;53.768;11.474;2022-12-18T01:48:58;-4.60;99.90
3792;DHT22;1911;53.768;11.474;2022-12-18T01:51:25;-4.60;99.90
3792;DHT22;1911;53.768;11.474;2022-12-18T01:53:52;-4.50;99.90
3792;DHT22;1911;53.768;11.474;2022-12-18T01:56:19;-4.50;99.90
3792;DHT22;1911;53.768;11.474;2022-12-18T01:58:51;-4.60;99.90
3792;DHT22;1911;53.768;11.474;2022-12-18T02:01:18;-4.60;99.90
3792;DHT22;1911;53.768;11.474;2022-12-18T02:03:45;-4.60;99.90
3792;DHT22;1911;53.768;11.474;2022-12-18T02:06:16;-4.70;99.90
3792;DHT22;1911;53.768;11.474;2022-12-18T02:08:50;-4.70;99.90
3792;DHT22;1911;53.768;11.474;2022-12-18T02:16:42;-4.70;99.90
3792;DHT22;1911;53.768;11.474;2022-12-18T02:27:44;-4.70;99.90
3792;DHT22;1911;53.768;11.474;2022-12-18T02:30:12;-4.70;99.90
3792;DHT22;1911;53.768;11.474;2022-12-18T02:32:41;-4.70;99.90
3792;DHT22;1911;53.768;11.474;2022-12-18T02:35:15;-4.70;99.90
3792;DHT22;1911;53.768;11.474;2022-12-18T02:37:44;-4.70;99.90
3792;DHT22;1911;53.768;11.474;2022-12-18T02:40:11;-4.80;99.90
3792;DHT22;1911;53.768;11.474;2022-12-18T02:42:38;-4.80;99.90
3792;DHT22;1911;53.768;11.474;2022-12-18T02:45:04;-4.90;99.90
3792;DHT22;1911;53.768;11.474;2022-12-18T02:47:32;-4.90;99.90
3792;DHT22;1911;53.768;11.474;2022-12-18T02:50:21;-5.00;99.90
3792;DHT22;1911;53.768;11.474;2022-12-18T03:01:49;-5.00;99.90
3792;DHT22;1911;53.768;11.474;2022-12-18T03:04:33;-5.00;99.90
3792;DHT22;1911;53.768;11.474;2022-12-18T03:07:06;-5.00;99.90
3792;DHT22;1911;53.768;11.474;2022-12-18T03:09:36;-5.00;99.90
3792;DHT22;1911;53.768;11.474;2022-12-18T03:12:30;-5.00;99.90
3792;DHT22;1911;53.768;11.474;2022-12-18T03:15:09;-5.00;99.90
3792;DHT22;1911;53.768;11.474;2022-12-18T03:17:37;-5.10;99.90
3792;DHT22;1911;53.768;11.474;2022-12-18T03:20:10;-5.10;99.90
3792;DHT22;1911;53.768;11.474;2022-12-18T03:22:38;-5.00;99.90
3792;DHT22;1911;53.768;11.474;2022-12-18T03:25:08;-5.00;99.90
3792;DHT22;1911;53.768;11.474;2022-12-18T03:27:37;-4.90;99.90
3792;DHT22;1911;53.768;11.474;2022-12-18T03:30:06;-4.90;99.90
3792;DHT22;1911;53.768;11.474;2022-12-18T03:35:30;-4.90;99.90
3792;DHT22;1911;53.768;11.474;2022-12-18T03:37:57;-4.80;99.90
3792;DHT22;1911;53.768;11.474;2022-12-18T03:40:29;-4.90;99.90
3792;DHT22;1911;53.768;11.474;2022-12-18T03:43:06;-4.90;99.90
3792;DHT22;1911;53.768;11.474;2022-12-18T03:45:41;-5.00;99.90
3792;DHT22;1911;53.768;11.474;2022-12-18T03:48:19;-5.10;99.90
3792;DHT22;1911;53.768;11.474;2022-12-18T03:50:53;-5.10;99.90
3792;DHT22;1911;53.768;11.474;2022-12-18T03:56:04;-5.10;99.90
3792;DHT22;1911;53.768;11.474;2022-12-18T03:58:32;-5.10;99.90
3792;DHT22;1911;53.768;11.474;2022-12-18T04:01:02;-5.10;99.90
3792;DHT22;1911;53.768;11.474;2022-12-18T04:03:29;-5.10;99.90
3792;DHT22;1911;53.768;11.474;2022-12-18T04:05:57;-5.10;99.90
3792;DHT22;1911;53.768;11.474;2022-12-18T04:08:24;-5.10;99.90
3792;DHT22;1911;53.768;11.474;2022-12-18T04:10:51;-5.10;99.90
3792;DHT22;1911;53.768;11.474;2022-12-18T04:13:32;-5.10;99.90
3792;DHT22;1911;53.768;11.474;2022-12-18T04:15:58;-5.10;99.90
3792;DHT22;1911;53.768;11.474;2022-12-18T04:18:24;-5.20;99.90
3792;DHT22;1911;53.768;11.474;2022-12-18T04:20:49;-5.30;99.90
3792;DHT22;1911;53.768;11.474;2022-12-18T04:23:15;-5.30;99.90
3792;DHT22;1911;53.768;11.474;2022-12-18T04:25:40;-5.30;99.90
3792;DHT22;1911;53.768;11.474;2022-12-18T04:28:06;-5.30;99.90
3792;DHT22;1911;53.768;11.474;2022-12-18T04:30:31;-5.30;99.90
3792;DHT22;1911;53.768;11.474;2022-12-18T04:33:34;-5.40;99.90
3792;DHT22;1911;53.768;11.474;2022-12-18T04:36:00;-5.30;99.90
3792;DHT22;1911;53.768;11.474;2022-12-18T04:38:25;-5.30;99.90
3792;DHT22;1911;53.768;11.474;2022-12-18T04:40:51;-5.30;99.90
3792;DHT22;1911;53.768;11.474;2022-12-18T04:43:16;-5.30;99.90
3792;DHT22;1911;53.768;11.474;2022-12-18T04:45:42;-5.20;99.90
3792;DHT22;1911;53.768;11.474;2022-12-18T04:48:08;-5.10;99.90
3792;DHT22;1911;53.768;11.474;2022-12-18T04:50:33;-5.20;99.90
3792;DHT22;1911;53.768;11.474;2022-12-18T04:52:59;-5.20;99.90
3792;DHT22;1911;53.768;11.474;2022-12-18T04:55:25;-5.30;99.90
3792;DHT22;1911;53.768;11.474;2022-12-18T04:57:51;-5.30;99.90
3792;DHT22;1911;53.768;11.474;2022-12-18T05:00:16;-5.30;99.90
3792;DHT22;1911;53.768;11.474;2022-12-18T05:02:42;-5.30;99.90
3792;DHT22;1911;53.768;11.474;2022-12-18T05:05:08;-5.30;99.90
3792;DHT22;1911;53.768;11.474;2022-12-18T05:07:34;-5.40;99.90
3792;DHT22;1911;53.768;11.474;2022-12-18T05:09:59;-5.40;99.90
3792;DHT22;1911;53.768;11.474;2022-12-18T05:12:25;-5.30;99.90
3792;DHT22;1911;53.768;11.474;2022-12-18T05:14:51;-5.20;99.90
3792;DHT22;1911;53.768;11.474;2022-12-18T05:17:16;-5.10;99.90
3792;DHT22;1911;53.768;11.474;2022-12-18T05:19:42;-5.10;99.90
3792;DHT22;1911;53.768;11.474;2022-12-18T05:22:08;-5.10;99.90
3792;DHT22;1911;53.768;11.474;2022-12-18T05:24:34;-5.10;99.90
3792;DHT22;1911;53.768;11.474;2022-12-18T05:26:59;-5.10;99.90
3792;DHT22;1911;53.768;11.474;2022-12-18T05:29:25;-5.00;99.90
3792;DHT22;1911;53.768;11.474;2022-12-18T05:31:51;-5.10;99.90
3792;DHT22;1911;53.768;11.474;2022-12-18T05:34:16;-5.20;99.90
3792;DHT22;1911;53.768;11.474;2022-12-18T05:36:42;-5.10;99.90
3792;DHT22;1911;53.768;11.474;2022-12-18T05:39:09;-5.20;99.90
3792;DHT22;1911;53.768;11.474;2022-12-18T05:41:34;-5.10;99.90
3792;DHT22;1911;53.768;11.474;2022-12-18T05:44:00;-5.10;99.90
3792;DHT22;1911;53.768;11.474;2022-12-18T05:46:26;-5.10;99.90
3792;DHT22;1911;53.768;11.474;2022-12-18T05:48:51;-5.20;99.90
3792;DHT22;1911;53.768;11.474;2022-12-18T05:51:19;-5.20;99.90
3792;DHT22;1911;53.768;11.474;2022-12-18T05:53:45;-5.30;99.90
3792;DHT22;1911;53.768;11.474;2022-12-18T05:56:18;-5.40;99.90
3792;DHT22;1911;53.768;11.474;2022-12-18T05:58:43;-5.50;99.90
3792;DHT22;1911;53.768;11.474;2022-12-18T06:01:15;-5.50;99.90
3792;DHT22;1911;53.768;11.474;2022-12-18T06:03:41;-5.50;99.90
3792;DHT22;1911;53.768;11.474;2022-12-18T06:06:20;-5.50;99.90
3792;DHT22;1911;53.768;11.474;2022-12-18T06:08:46;-5.50;99.90
3792;DHT22;1911;53.768;11.474;2022-12-18T06:11:12;-5.50;99.90
3792;DHT22;1911;53.768;11.474;2022-12-18T06:13:38;-5.50;99.90
3792;DHT22;1911;53.768;11.474;2022-12-18T06:16:05;-5.50;99.90
3792;DHT22;1911;53.768;11.474;2022-12-18T06:18:31;-5.50;99.90
3792;DHT22;1911;53.768;11.474;2022-12-18T06:20:57;-5.50;99.90
3792;DHT22;1911;53.768;11.474;2022-12-18T06:23:23;-5.50;99.90
3792;DHT22;1911;53.768;11.474;2022-12-18T06:25:49;-5.40;99.90
3792;DHT22;1911;53.768;11.474;2022-12-18T06:28:15;-5.40;99.90
3792;DHT22;1911;53.768;11.474;2022-12-18T06:30:45;-5.40;99.90
3792;DHT22;1911;53.768;11.474;2022-12-18T06:33:11;-5.40;99.90
3792;DHT22;1911;53.768;11.474;2022-12-18T06:35:36;-5.40;99.90
3792;DHT22;1911;53.768;11.474;2022-12-18T06:38:02;-5.40;99.90
3792;DHT22;1911;53.768;11.474;2022-12-18T06:40:28;-5.40;99.90
3792;DHT22;1911;53.768;11.474;2022-12-18T06:42:54;-5.40;99.90
3792;DHT22;1911;53.768;11.474;2022-12-18T06:45:20;-5.40;99.90
3792;DHT22;1911;53.768;11.474;2022-12-18T06:47:45;-5.40;99.90
3792;DHT22;1911;53.768;11.474;2022-12-18T06:50:12;-5.40;99.90
3792;DHT22;1911;53.768;11.474;2022-12-18T06:52:38;-5.40;99.90
3792;DHT22;1911;53.768;11.474;2022-12-18T06:55:06;-5.40;99.90
3792;DHT22;1911;53.768;11.474;2022-12-18T06:57:33;-5.40;99.90
3792;DHT22;1911;53.768;11.474;2022-12-18T06:59:58;-5.40;99.90
3792;DHT22;1911;53.768;11.474;2022-12-18T07:02:24;-5.40;99.90
3792;DHT22;1911;53.768;11.474;2022-12-18T07:04:50;-5.40;99.90
3792;DHT22;1911;53.768;11.474;2022-12-18T07:07:15;-5.40;99.90
3792;DHT22;1911;53.768;11.474;2022-12-18T07:09:41;-5.40;99.90
3792;DHT22;1911;53.768;11.474;2022-12-18T07:12:06;-5.40;99.90
3792;DHT22;1911;53.768;11.474;2022-12-18T07:14:33;-5.30;99.90
3792;DHT22;1911;53.768;11.474;2022-12-18T07:16:59;-5.30;99.90
3792;DHT22;1911;53.768;11.474;2022-12-18T07:19:24;-5.30;99.90
3792;DHT22;1911;53.768;11.474;2022-12-18T07:21:51;-5.30;99.90
3792;DHT22;1911;53.768;11.474;2022-12-18T07:24:16;-5.40;99.90
3792;DHT22;1911;53.768;11.474;2022-12-18T07:26:42;-5.40;99.90
3792;DHT22;1911;53.768;11.474;2022-12-18T07:29:08;-5.40;99.90
3792;DHT22;1911;53.768;11.474;2022-12-18T07:31:33;-5.40;99.90
3792;DHT22;1911;53.768;11.474;2022-12-18T07:33:59;-5.40;99.90
3792;DHT22;1911;53.768;11.474;2022-12-18T07:36:24;-5.40;99.90
3792;DHT22;1911;53.768;11.474;2022-12-18T07:38:53;-5.40;99.90
3792;DHT22;1911;53.768;11.474;2022-12-18T07:41:19;-5.40;99.90
3792;DHT22;1911;53.768;11.474;2022-12-18T07:43:45;-5.40;99.90
3792;DHT22;1911;53.768;11.474;2022-12-18T07:46:14;-5.30;99.90
3792;DHT22;1911;53.768;11.474;2022-12-18T07:48:40;-5.30;99.90
3792;DHT22;1911;53.768;11.474;2022-12-18T07:51:07;-5.30;99.90
3792;DHT22;1911;53.768;11.474;2022-12-18T07:53:33;-5.30;99.90
3792;DHT22;1911;53.768;11.474;2022-12-18T07:56:01;-5.30;99.90
3792;DHT22;1911;53.768;11.474;2022-12-18T07:58:28;-5.30;99.90
3792;DHT22;1911;53.768;11.474;2022-12-18T08:01:10;-5.30;99.90
3792;DHT22;1911;53.768;11.474;2022-12-18T08:03:36;-5.30;99.90
3792;DHT22;1911;53.768;11.474;2022-12-18T08:06:03;-5.20;99.90
3792;DHT22;1911;53.768;11.474;2022-12-18T08:08:29;-5.10;99.90
3792;DHT22;1911;53.768;11.474;2022-12-18T08:10:55;-4.90;99.90
3792;DHT22;1911;53.768;11.474;2022-12-18T08:13:21;-4.70;99.90
3792;DHT22;1911;53.768;11.474;2022-12-18T08:15:58;-4.70;99.90
3792;DHT22;1911;53.768;11.474;2022-12-18T08:18:25;-4.60;99.90
3792;DHT22;1911;53.768;11.474;2022-12-18T08:20:50;-4.80;99.90
3792;DHT22;1911;53.768;11.474;2022-12-18T08:23:16;-4.80;99.90
3792;DHT22;1911;53.768;11.474;2022-12-18T08:25:41;-4.90;99.90
3792;DHT22;1911;53.768;11.474;2022-12-18T08:28:07;-4.90;99.90
3792;DHT22;1911;53.768;11.474;2022-12-18T08:30:33;-5.00;99.90
3792;DHT22;1911;53.768;11.474;2022-12-18T08:32:58;-4.90;99.90
3792;DHT22;1911;53.768;11.474;2022-12-18T08:35:24;-4.90;99.90
3792;DHT22;1911;53.768;11.474;2022-12-18T08:37:50;-5.00;99.90
3792;DHT22;1911;53.768;11.474;2022-12-18T08:40:15;-4.90;99.90
3792;DHT22;1911;53.768;11.474;2022-12-18T08:42:41;-4.80;99.90
3792;DHT22;1911;53.768;11.474;2022-12-18T08:45:25;-4.70;99.90
3792;DHT22;1911;53.768;11.474;2022-12-18T08:47:51;-4.60;99.90
3792;DHT22;1911;53.768;11.474;2022-12-18T08:50:17;-4.50;99.90
3792;DHT22;1911;53.768;11.474;2022-12-18T08:52:42;-4.30;99.90
3792;DHT22;1911;53.768;11.474;2022-12-18T08:55:09;-4.30;99.90
3792;DHT22;1911;53.768;11.474;2022-12-18T08:57:35;-4.20;99.90
3792;DHT22;1911;53.768;11.474;2022-12-18T09:00:00;-4.10;99.90
3792;DHT22;1911;53.768;11.474;2022-12-18T09:02:51;-4.10;99.90
3792;DHT22;1911;53.768;11.474;2022-12-18T09:05:16;-4.30;99.90
3792;DHT22;1911;53.768;11.474;2022-12-18T09:07:42;-4.40;99.90
3792;DHT22;1911;53.768;11.474;2022-12-18T09:10:07;-4.30;99.90
3792;DHT22;1911;53.768;11.474;2022-12-18T09:12:33;-4.30;99.90
3792;DHT22;1911;53.768;11.474;2022-12-18T09:14:58;-4.40;99.90
3792;DHT22;1911;53.768;11.474;2022-12-18T09:17:24;-4.50;99.90
3792;DHT22;1911;53.768;11.474;2022-12-18T09:19:50;-4.40;99.90
3792;DHT22;1911;53.768;11.474;2022-12-18T09:22:16;-4.40;99.90
3792;DHT22;1911;53.768;11.474;2022-12-18T09:24:41;-4.50;99.90
3792;DHT22;1911;53.768;11.474;2022-12-18T09:27:07;-4.50;99.90
3792;DHT22;1911;53.768;11.474;2022-12-18T09:29:32;-4.40;99.90
3792;DHT22;1911;53.768;11.474;2022-12-18T09:31:58;-4.00;99.90
3792;DHT22;1911;53.768;11.474;2022-12-18T09:34:24;-3.70;99.90
3792;DHT22;1911;53.768;11.474;2022-12-18T09:36:50;-3.60;99.90
3792;DHT22;1911;53.768;11.474;2022-12-18T09:39:15;-3.30;99.90
3792;DHT22;1911;53.768;11.474;2022-12-18T09:41:47;-3.20;99.90
3792;DHT22;1911;53.768;11.474;2022-12-18T09:47:13;-3.70;99.90
3792;DHT22;1911;53.768;11.474;2022-12-18T09:49:45;-3.70;99.90
3792;DHT22;1911;53.768;11.474;2022-12-18T09:52:19;-3.80;99.90
3792;DHT22;1911;53.768;11.474;2022-12-18T09:54:52;-3.90;99.90
3792;DHT22;1911;53.768;11.474;2022-12-18T09:57:21;-4.00;99.90
3792;DHT22;1911;53.768;11.474;2022-12-18T09:59:55;-4.10;99.90
3792;DHT22;1911;53.768;11.474;2022-12-18T10:02:24;-4.20;99.90
3792;DHT22;1911;53.768;11.474;2022-12-18T10:05:03;-4.30;99.90
3792;DHT22;1911;53.768;11.474;2022-12-18T10:10:38;-4.30;99.90
3792;DHT22;1911;53.768;11.474;2022-12-18T10:15:45;-4.30;99.90
3792;DHT22;1911;53.768;11.474;2022-12-18T10:18:25;-4.30;99.90
3792;DHT22;1911;53.768;11.474;2022-12-18T10:21:12;-4.30;99.90
3792;DHT22;1911;53.768;11.474;2022-12-18T10:26:15;-4.30;99.90
3792;DHT22;1911;53.768;11.474;2022-12-18T10:28:41;-4.40;99.90
3792;DHT22;1911;53.768;11.474;2022-12-18T10:31:18;-4.40;99.90
3792;DHT22;1911;53.768;11.474;2022-12-18T10:33:44;-4.50;99.90
3792;DHT22;1911;53.768;11.474;2022-12-18T10:36:10;-4.50;99.90
3792;DHT22;1911;53.768;11.474;2022-12-18T10:38:35;-4.30;99.90
3792;DHT22;1911;53.768;11.474;2022-12-18T10:41:21;-4.20;99.90
3792;DHT22;1911;53.768;11.474;2022-12-18T10:46:44;-4.00;99.90
3792;DHT22;1911;53.768;11.474;2022-12-18T10:49:23;-4.00;99.90
3792;DHT22;1911;53.768;11.474;2022-12-18T10:51:49;-4.00;99.90
3792;DHT22;1911;53.768;11.474;2022-12-18T10:54:20;-4.00;99.90
3792;DHT22;1911;53.768;11.474;2022-12-18T10:56:47;-3.90;99.90
3792;DHT22;1911;53.768;11.474;2022-12-18T10:59:15;-3.80;99.90
3792;DHT22;1911;53.768;11.474;2022-12-18T11:01:53;-3.70;99.90
3792;DHT22;1911;53.768;11.474;2022-12-18T11:04:31;-3.60;99.90
3792;DHT22;1911;53.768;11.474;2022-12-18T11:09:33;-3.50;99.90
3792;DHT22;1911;53.768;11.474;2022-12-18T11:12:02;-3.50;99.90
3792;DHT22;1911;53.768;11.474;2022-12-18T11:14:32;-3.60;99.90
3792;DHT22;1911;53.768;11.474;2022-12-18T11:17:00;-3.50;99.90
3792;DHT22;1911;53.768;11.474;2022-12-18T11:19:39;-3.50;99.90
3792;DHT22;1911;53.768;11.474;2022-12-18T11:22:30;-3.40;99.90
3792;DHT22;1911;53.768;11.474;2022-12-18T11:27:40;-3.40;99.90
3792;DHT22;1911;53.768;11.474;2022-12-18T11:30:35;-3.40;99.90
3792;DHT22;1911;53.768;11.474;2022-12-18T11:33:16;-3.40;99.90
3792;DHT22;1911;53.768;11.474;2022-12-18T11:35:56;-3.50;99.90
3792;DHT22;1911;53.768;11.474;2022-12-18T11:38:27;-3.50;99.90
3792;DHT22;1911;53.768;11.474;2022-12-18T11:41:11;-3.50;99.90
3792;DHT22;1911;53.768;11.474;2022-12-18T11:43:46;-3.60;99.90
3792;DHT22;1911;53.768;11.474;2022-12-18T11:46:19;-3.70;99.90
3792;DHT22;1911;53.768;11.474;2022-12-18T11:49:01;-3.70;99.90
3792;DHT22;1911;53.768;11.474;2022-12-18T11:51:34;-3.80;99.90
3792;DHT22;1911;53.768;11.474;2022-12-18T11:54:01;-3.70;99.90
3792;DHT22;1911;53.768;11.474;2022-12-18T11:56:36;-3.70;99.90
3792;DHT22;1911;53.768;11.474;2022-12-18T12:12:48;-3.80;99.90
3792;DHT22;1911;53.768;11.474;2022-12-18T12:15:32;-3.80;99.90
3792;DHT22;1911;53.768;11.474;2022-12-18T12:26:31;-4.10;99.90
3792;DHT22;1911;53.768;11.474;2022-12-18T12:34:30;-4.00;99.90
3792;DHT22;1911;53.768;11.474;2022-12-18T12:37:12;-4.00;99.90
3792;DHT22;1911;53.768;11.474;2022-12-18T12:39:42;-4.00;99.90
3792;DHT22;1911;53.768;11.474;2022-12-18T12:42:29;-3.90;99.90
3792;DHT22;1911;53.768;11.474;2022-12-18T12:45:20;-3.90;99.90
3792;DHT22;1911;53.768;11.474;2022-12-18T12:47:48;-3.80;99.90
3792;DHT22;1911;53.768;11.474;2022-12-18T12:50:17;-3.80;99.90
3792;DHT22;1911;53.768;11.474;2022-12-18T12:52:46;-3.70;99.90
3792;DHT22;1911;53.768;11.474;2022-12-18T12:55:22;-3.70;99.90
3792;DHT22;1911;53.768;11.474;2022-12-18T12:58:14;-3.80;99.90
3792;DHT22;1911;53.768;11.474;2022-12-18T13:00:52;-3.70;99.90
3792;DHT22;1911;53.768;11.474;2022-12-18T13:06:02;-3.80;99.90
3792;DHT22;1911;53.768;11.474;2022-12-18T13:08:32;-3.90;99.90
3792;DHT22;1911;53.768;11.474;2022-12-18T13:11:30;-3.90;99.90
3792;DHT22;1911;53.768;11.474;2022-12-18T13:14:44;-3.90;99.90
3792;DHT22;1911;53.768;11.474;2022-12-18T13:19:55;-3.90;99.90
3792;DHT22;1911;53.768;11.474;2022-12-18T13:22:47;-4.00;99.90
3792;DHT22;1911;53.768;11.474;2022-12-18T13:25:35;-4.00;99.90
3792;DHT22;1911;53.768;11.474;2022-12-18T13:28:15;-4.00;99.90
3792;DHT22;1911;53.768;11.474;2022-12-18T13:30:42;-4.00;99.90
3792;DHT22;1911;53.768;11.474;2022-12-18T13:46:00;-3.80;99.90
3792;DHT22;1911;53.768;11.474;2022-12-18T13:48:27;-3.80;99.90
3792;DHT22;1911;53.768;11.474;2022-12-18T13:51:03;-3.80;99.90
3792;DHT22;1911;53.768;11.474;2022-12-18T13:53:57;-3.80;99.90
3792;DHT22;1911;53.768;11.474;2022-12-18T13:56:26;-3.70;99.90
3792;DHT22;1911;53.768;11.474;2022-12-18T13:59:15;-3.80;99.90
3792;DHT22;1911;53.768;11.474;2022-12-18T14:04:31;-3.80;99.90
3792;DHT22;1911;53.768;11.474;2022-12-18T14:07:21;-3.80;99.90
3792;DHT22;1911;53.768;11.474;2022-12-18T14:10:01;-3.90;99.90
3792;DHT22;1911;53.768;11.474;2022-12-18T14:12:30;-3.90;99.90
3792;DHT22;1911;53.768;11.474;2022-12-18T14:17:58;-4.00;99.90
3792;DHT22;1911;53.768;11.474;2022-12-18T14:20:28;-4.10;99.90
3792;DHT22;1911;53.768;11.474;2022-12-18T14:22:56;-4.10;99.90
3792;DHT22;1911;53.768;11.474;2022-12-18T14:25:32;-4.10;99.90
3792;DHT22;1911;53.768;11.474;2022-12-18T14:28:12;-4.10;99.90
3792;DHT22;1911;53.768;11.474;2022-12-18T14:30:49;-4.00;99.90
3792;DHT22;1911;53.768;11.474;2022-12-18T14:37:03;-4.00;99.90
3792;DHT22;1911;53.768;11.474;2022-12-18T14:43:08;-4.00;99.90
3792;DHT22;1911;53.768;11.474;2022-12-18T14:49:35;-4.10;99.90
3792;DHT22;1911;53.768;11.474;2022-12-18T14:52:06;-4.20;99.90
3792;DHT22;1911;53.768;11.474;2022-12-18T14:54:39;-4.20;99.90
3792;DHT22;1911;53.768;11.474;2022-12-18T14:57:29;-4.20;99.90
3792;DHT22;1911;53.768;11.474;2022-12-18T15:00:07;-4.20;99.90
3792;DHT22;1911;53.768;11.474;2022-12-18T15:02:35;-4.20;99.90
3792;DHT22;1911;53.768;11.474;2022-12-18T15:05:04;-4.20;99.90
3792;DHT22;1911;53.768;11.474;2022-12-18T15:11:22;-4.10;99.90
3792;DHT22;1911;53.768;11.474;2022-12-18T15:24:04;-4.30;99.90
3792;DHT22;1911;53.768;11.474;2022-12-18T15:27:00;-4.40;99.90
3792;DHT22;1911;53.768;11.474;2022-12-18T15:39:41;-4.50;99.90
3792;DHT22;1911;53.768;11.474;2022-12-18T15:45:31;-4.50;99.90
3792;DHT22;1911;53.768;11.474;2022-12-18T15:47:56;-4.50;99.90
3792;DHT22;1911;53.768;11.474;2022-12-18T15:50:22;-4.50;99.90
3792;DHT22;1911;53.768;11.474;2022-12-18T15:52:51;-4.50;99.90
3792;DHT22;1911;53.768;11.474;2022-12-18T15:55:20;-4.40;99.90
3792;DHT22;1911;53.768;11.474;2022-12-18T15:58:09;-4.40;99.90
3792;DHT22;1911;53.768;11.474;2022-12-18T16:00:36;-4.40;99.90
3792;DHT22;1911;53.768;11.474;2022-12-18T16:03:03;-4.40;99.90
3792;DHT22;1911;53.768;11.474;2022-12-18T16:05:29;-4.40;99.90
3792;DHT22;1911;53.768;11.474;2022-12-18T16:07:55;-4.40;99.90
3792;DHT22;1911;53.768;11.474;2022-12-18T16:10:21;-4.30;99.90
3792;DHT22;1911;53.768;11.474;2022-12-18T16:12:46;-4.30;99.90
3792;DHT22;1911;53.768;11.474;2022-12-18T16:15:15;-4.20;99.90
3792;DHT22;1911;53.768;11.474;2022-12-18T16:17:42;-4.20;99.90
3792;DHT22;1911;53.768;11.474;2022-12-18T16:20:20;-4.20;99.90
3792;DHT22;1911;53.768;11.474;2022-12-18T16:22:46;-4.30;99.90
3792;DHT22;1911;53.768;11.474;2022-12-18T16:25:21;-4.30;99.90
3792;DHT22;1911;53.768;11.474;2022-12-18T16:27:48;-4.40;99.90
3792;DHT22;1911;53.768;11.474;2022-12-18T16:30:20;-4.40;99.90
3792;DHT22;1911;53.768;11.474;2022-12-18T16:32:46;-4.50;99.90
3792;DHT22;1911;53.768;11.474;2022-12-18T16:35:15;-4.60;99.90
3792;DHT22;1911;53.768;11.474;2022-12-18T16:37:41;-4.60;99.90
3792;DHT22;1911;53.768;11.474;2022-12-18T16:40:14;-4.60;99.90
3792;DHT22;1911;53.768;11.474;2022-12-18T16:42:42;-4.50;99.90
3792;DHT22;1911;53.768;11.474;2022-12-18T16:45:09;-4.60;99.90
3792;DHT22;1911;53.768;11.474;2022-12-18T16:47:35;-4.60;99.90
3792;DHT22;1911;53.768;11.474;2022-12-18T16:50:02;-4.50;99.90
3792;DHT22;1911;53.768;11.474;2022-12-18T16:52:37;-4.60;99.90
3792;DHT22;1911;53.768;11.474;2022-12-18T16:55:03;-4.50;99.90
3792;DHT22;1911;53.768;11.474;2022-12-18T16:57:29;-4.50;99.90
3792;DHT22;1911;53.768;11.474;2022-12-18T16:59:54;-4.50;99.90
3792;DHT22;1911;53.768;11.474;2022-12-18T17:02:25;-4.50;99.90
3792;DHT22;1911;53.768;11.474;2022-12-18T17:04:55;-4.40;99.90
3792;DHT22;1911;53.768;11.474;2022-12-18T17:07:21;-4.50;99.90
3792;DHT22;1911;53.768;11.474;2022-12-18T17:09:46;-4.40;99.90
3792;DHT22;1911;53.768;11.474;2022-12-18T17:12:14;-4.40;99.90
3792;DHT22;1911;53.768;11.474;2022-12-18T17:14:42;-4.40;99.90
3792;DHT22;1911;53.768;11.474;2022-12-18T17:17:08;-4.40;99.90
3792;DHT22;1911;53.768;11.474;2022-12-18T17:19:33;-4.40;99.90
3792;DHT22;1911;53.768;11.474;2022-12-18T17:21:59;-4.40;99.90
3792;DHT22;1911;53.768;11.474;2022-12-18T17:24:26;-4.40;99.90
3792;DHT22;1911;53.768;11.474;2022-12-18T17:26:54;-4.40;99.90
3792;DHT22;1911;53.768;11.474;2022-12-18T17:29:20;-4.40;99.90
3792;DHT22;1911;53.768;11.474;2022-12-18T17:31:48;-4.40;99.90
3792;DHT22;1911;53.768;11.474;2022-12-18T17:34:16;-4.40;99.90
3792;DHT22;1911;53.768;11.474;2022-12-18T17:36:42;-4.40;99.90
3792;DHT22;1911;53.768;11.474;2022-12-18T17:39:15;-4.30;99.90
3792;DHT22;1911;53.768;11.474;2022-12-18T17:41:41;-4.30;99.90
3792;DHT22;1911;53.768;11.474;2022-12-18T17:44:08;-4.30;99.90
3792;DHT22;1911;53.768;11.474;2022-12-18T17:46:33;-4.30;99.90
3792;DHT22;1911;53.768;11.474;2022-12-18T17:49:00;-4.30;99.90
3792;DHT22;1911;53.768;11.474;2022-12-18T17:51:27;-4.30;99.90
3792;DHT22;1911;53.768;11.474;2022-12-18T17:53:53;-4.30;99.90
3792;DHT22;1911;53.768;11.474;2022-12-18T17:56:20;-4.40;99.90
3792;DHT22;1911;53.768;11.474;2022-12-18T17:58:47;-4.40;99.90
3792;DHT22;1911;53.768;11.474;2022-12-18T18:01:18;-4.30;99.90
3792;DHT22;1911;53.768;11.474;2022-12-18T18:03:44;-4.40;99.90
3792;DHT22;1911;53.768;11.474;2022-12-18T18:06:10;-4.30;99.90
3792;DHT22;1911;53.768;11.474;2022-12-18T18:08:36;-4.40;99.90
3792;DHT22;1911;53.768;11.474;2022-12-18T18:11:06;-4.40;99.90
3792;DHT22;1911;53.768;11.474;2022-12-18T18:13:52;-4.30;99.90
3792;DHT22;1911;53.768;11.474;2022-12-18T18:16:37;-4.40;99.90
3792;DHT22;1911;53.768;11.474;2022-12-18T18:19:06;-4.40;99.90